Time;durP1;ratioP1;P1;durP2;ratioP2;P2;SDS_P1;SDS_P2;PMS_P1;PMS_P2;Temp;Humidity;BMP_temperature;BMP_pressure;BME280_temperature;BME280_humidity;BME280_pressure;Samples;Min_cycle;Max_cycle;Signal;HPM_P1;HPM_P2
2023/09/30 00:03:18;;;;;;;16.65;8.73;;;;;;;;;;5003414;28;20042;-70
2023/09/30 00:06:59;;;;;;;15.15;8.55;;;;;;;;;;5002759;28;20053;-70
2023/09/30 00:10:39;;;;;;;14.95;9.30;;;;;;;;;;5006467;28;20632;-70
2023/09/30 00:14:20;;;;;;;12.80;8.63;;;;;;;;;;5001291;28;20068;-70
2023/09/30 00:18:01;;;;;;;16.35;9.05;;;;;;;;;;5006575;28;20053;-70
2023/09/30 00:21:40;;;;;;;17.15;8.93;;;;;;;;;;5002867;28;20484;-71
2023/09/30 00:25:20;;;;;;;18.08;8.98;;;;;;;;;;5001511;28;20042;-70
2023/09/30 00:29:04;;;;;;;16.17;8.95;;;;;;;;;;5005141;28;20053;-69
2023/09/30 00:32:42;;;;;;;17.27;8.80;;;;;;;;;;5002122;28;20053;-71
2023/09/30 00:36:25;;;;;;;11.85;7.75;;;;;;;;;;5004741;28;20442;-69
2023/09/30 00:40:06;;;;;;;16.25;8.77;;;;;;;;;;5002292;28;20042;-71
2023/09/30 00:43:46;;;;;;;11.55;8.20;;;;;;;;;;5006640;28;20125;-70
2023/09/30 00:47:26;;;;;;;14.55;8.23;;;;;;;;;;4998346;28;20475;-69
2023/09/30 00:51:07;;;;;;;16.23;8.25;;;;;;;;;;5003068;28;20089;-70
2023/09/30 00:54:47;;;;;;;19.92;8.48;;;;;;;;;;5004826;28;20087;-70
2023/09/30 00:58:30;;;;;;;17.90;8.65;;;;;;;;;;5005088;28;20076;-69
2023/09/30 01:02:09;;;;;;;11.20;7.97;;;;;;;;;;5000002;28;20042;-69
2023/09/30 01:05:49;;;;;;;17.30;7.60;;;;;;;;;;5000499;28;20414;-71
2023/09/30 01:09:10;;;;;;;14.07;7.80;;;;;;;;;;5006618;28;20042;-71
2023/09/30 01:11:36;;;;;;;12.50;8.30;;;;;;;;;;5002065;28;20494;-70
2023/09/30 01:14:03;;;;;;;13.30;8.15;;;;;;;;;;4992796;28;20054;-69
2023/09/30 01:16:29;;;;;;;18.77;8.65;;;;;;;;;;4995827;28;20294;-69
2023/09/30 01:18:55;;;;;;;18.35;8.18;;;;;;;;;;5007360;28;20506;-69
2023/09/30 01:21:23;;;;;;;13.00;7.78;;;;;;;;;;5006450;28;20402;-70
2023/09/30 01:23:49;;;;;;;15.13;8.80;;;;;;;;;;5018270;28;20096;-69
2023/09/30 01:26:15;;;;;;;13.75;8.05;;;;;;;;;;5007994;28;20062;-71
2023/09/30 01:28:41;;;;;;;17.05;8.32;;;;;;;;;;5009838;28;20517;-70
2023/09/30 01:31:08;;;;;;;15.02;8.48;;;;;;;;;;5005510;28;20068;-69
2023/09/30 01:33:35;;;;;;;13.85;8.40;;;;;;;;;;5009702;28;20061;-69
2023/09/30 01:36:01;;;;;;;16.88;8.02;;;;;;;;;;5008288;28;20037;-68
2023/09/30 01:38:27;;;;;;;15.85;8.57;;;;;;;;;;5009780;28;20049;-71
2023/09/30 01:40:54;;;;;;;16.40;9.82;;;;;;;;;;5009696;28;20556;-69
2023/09/30 01:43:20;;;;;;;13.50;8.77;;;;;;;;;;5005419;28;20478;-70
2023/09/30 01:45:46;;;;;;;16.52;9.52;;;;;;;;;;5007843;28;20057;-70
2023/09/30 01:48:11;;;;;;;16.58;9.27;;;;;;;;;;5003308;28;20064;-70
2023/09/30 01:50:41;;;;;;;14.20;8.90;;;;;;;;;;5008873;28;20066;-70
2023/09/30 01:53:07;;;;;;;17.83;9.43;;;;;;;;;;5009710;28;20074;-70
2023/09/30 01:55:34;;;;;;;12.32;8.90;;;;;;;;;;5011829;28;20065;-70
2023/09/30 01:58:00;;;;;;;21.58;9.32;;;;;;;;;;5012847;28;20058;-69
2023/09/30 02:00:28;;;;;;;21.67;8.85;;;;;;;;;;5007928;28;20050;-70
2023/09/30 02:02:56;;;;;;;18.10;10.05;;;;;;;;;;5008308;28;20378;-70
2023/09/30 02:05:23;;;;;;;15.85;10.48;;;;;;;;;;4988115;28;20145;-69
2023/09/30 02:07:51;;;;;;;16.02;9.77;;;;;;;;;;5008779;28;20074;-68
2023/09/30 02:10:18;;;;;;;13.70;9.57;;;;;;;;;;5008455;28;20394;-69
2023/09/30 02:12:45;;;;;;;13.70;9.23;;;;;;;;;;5009697;28;20092;-70
2023/09/30 02:15:12;;;;;;;20.25;9.70;;;;;;;;;;5002716;28;20050;-69
2023/09/30 02:17:38;;;;;;;18.42;8.95;;;;;;;;;;5005389;28;20062;-69
2023/09/30 02:20:12;;;;;;;17.45;8.32;;;;;;;;;;5007063;28;20050;-70
2023/09/30 02:22:39;;;;;;;10.95;7.43;;;;;;;;;;5009261;28;20103;-69
2023/09/30 02:25:07;;;;;;;11.80;7.95;;;;;;;;;;5007180;28;20049;-69
2023/09/30 02:27:34;;;;;;;12.60;7.97;;;;;;;;;;5007872;28;20056;-68
2023/09/30 02:30:00;;;;;;;11.73;7.47;;;;;;;;;;5005001;28;20395;-70
2023/09/30 02:32:26;;;;;;;10.75;7.82;;;;;;;;;;5007902;28;20064;-70
2023/09/30 02:34:53;;;;;;;12.15;7.57;;;;;;;;;;5006178;28;20136;-69
2023/09/30 02:37:19;;;;;;;12.15;7.40;;;;;;;;;;5009322;28;20128;-71
2023/09/30 02:39:45;;;;;;;12.20;7.32;;;;;;;;;;5009993;28;20147;-70
2023/09/30 02:42:11;;;;;;;13.98;7.63;;;;;;;;;;5009862;28;20065;-71
2023/09/30 02:44:38;;;;;;;11.80;7.22;;;;;;;;;;5011026;28;20727;-70
2023/09/30 02:47:04;;;;;;;11.18;7.32;;;;;;;;;;5006167;28;20497;-70
2023/09/30 02:49:33;;;;;;;11.27;6.97;;;;;;;;;;5005199;28;20486;-71
2023/09/30 02:51:58;;;;;;;16.15;7.07;;;;;;;;;;5010213;28;20298;-70
2023/09/30 02:54:24;;;;;;;16.38;7.30;;;;;;;;;;5009382;28;20046;-69
2023/09/30 02:56:52;;;;;;;15.00;6.93;;;;;;;;;;5009266;28;20041;-70
2023/09/30 02:59:20;;;;;;;10.73;6.00;;;;;;;;;;5009589;28;20104;-70
2023/09/30 03:01:46;;;;;;;12.07;6.18;;;;;;;;;;5005516;28;21295;-71
2023/09/30 03:04:14;;;;;;;10.45;5.70;;;;;;;;;;5009219;28;20149;-71
2023/09/30 03:06:40;;;;;;;9.63;5.57;;;;;;;;;;5006625;28;20080;-74
2023/09/30 03:09:06;;;;;;;10.45;5.00;;;;;;;;;;5011477;28;20049;-68
2023/09/30 03:11:34;;;;;;;9.35;4.43;;;;;;;;;;4992995;28;20081;-69
2023/09/30 03:14:02;;;;;;;6.05;4.13;;;;;;;;;;5006090;28;20084;-69
2023/09/30 03:16:30;;;;;;;6.50;4.00;;;;;;;;;;5005128;28;20073;-69
2023/09/30 03:18:56;;;;;;;6.20;4.35;;;;;;;;;;4989491;28;20050;-71
2023/09/30 03:21:22;;;;;;;4.95;3.20;;;;;;;;;;5002332;28;20058;-69
2023/09/30 03:23:48;;;;;;;7.97;3.78;;;;;;;;;;5002274;28;20056;-69
2023/09/30 03:26:15;;;;;;;8.93;4.00;;;;;;;;;;5007859;28;20042;-70
2023/09/30 03:28:42;;;;;;;7.32;4.35;;;;;;;;;;4989418;28;20100;-72
2023/09/30 03:31:07;;;;;;;8.90;5.05;;;;;;;;;;5005206;28;20407;-69
2023/09/30 03:33:35;;;;;;;7.03;5.60;;;;;;;;;;5001337;28;20077;-69
2023/09/30 03:36:01;;;;;;;15.50;6.10;;;;;;;;;;5007575;28;20042;-70
2023/09/30 03:38:27;;;;;;;14.73;6.45;;;;;;;;;;5005547;28;20065;-69
2023/09/30 03:40:54;;;;;;;15.45;6.82;;;;;;;;;;4990786;28;20046;-68
2023/09/30 03:43:23;;;;;;;14.35;6.63;;;;;;;;;;5006061;28;20056;-71
2023/09/30 03:45:50;;;;;;;18.30;7.60;;;;;;;;;;5007055;28;20565;-71
2023/09/30 03:48:18;;;;;;;14.20;7.22;;;;;;;;;;5002812;28;20049;-71
2023/09/30 03:50:44;;;;;;;15.57;7.53;;;;;;;;;;5000479;28;20054;-70
2023/09/30 03:53:11;;;;;;;20.48;7.07;;;;;;;;;;5007976;28;20050;-71
2023/09/30 03:55:37;;;;;;;10.65;7.18;;;;;;;;;;5008830;28;20049;-69
2023/09/30 03:58:04;;;;;;;12.90;6.72;;;;;;;;;;5008124;28;20084;-69
2023/09/30 04:00:30;;;;;;;10.40;5.78;;;;;;;;;;5008149;28;20133;-70
2023/09/30 04:02:59;;;;;;;10.95;5.82;;;;;;;;;;5002398;28;20061;-70
2023/09/30 04:05:29;;;;;;;12.50;6.45;;;;;;;;;;5005504;28;20053;-71
2023/09/30 04:07:58;;;;;;;10.80;6.10;;;;;;;;;;5005722;28;20061;-69
2023/09/30 04:10:26;;;;;;;7.88;5.22;;;;;;;;;;4998527;28;20049;-71
2023/09/30 04:12:52;;;;;;;11.48;5.38;;;;;;;;;;5007060;28;20484;-69
2023/09/30 04:15:18;;;;;;;9.23;5.65;;;;;;;;;;4992644;28;20050;-68
2023/09/30 04:17:44;;;;;;;10.05;5.65;;;;;;;;;;4986154;28;20076;-70
2023/09/30 04:20:15;;;;;;;8.57;4.75;;;;;;;;;;5001648;28;20533;-70
2023/09/30 04:22:46;;;;;;;13.55;4.80;;;;;;;;;;5005985;28;20129;-69
2023/09/30 04:25:12;;;;;;;14.13;5.53;;;;;;;;;;5007053;28;20046;-68
2023/09/30 04:27:38;;;;;;;13.45;5.53;;;;;;;;;;5006213;28;20525;-69
2023/09/30 04:30:08;;;;;;;9.45;4.95;;;;;;;;;;5007204;28;20053;-69
2023/09/30 04:32:36;;;;;;;9.95;4.78;;;;;;;;;;5000186;28;20062;-69
2023/09/30 04:35:04;;;;;;;12.02;5.32;;;;;;;;;;4987851;28;20049;-70
2023/09/30 04:37:30;;;;;;;13.38;4.60;;;;;;;;;;5009713;28;20061;-68
2023/09/30 04:39:57;;;;;;;13.05;5.18;;;;;;;;;;5010912;28;20052;-72
2023/09/30 04:42:25;;;;;;;10.20;4.68;;;;;;;;;;5008333;28;20544;-70
2023/09/30 04:44:59;;;;;;;9.93;5.05;;;;;;;;;;4973516;28;20069;-69
2023/09/30 04:47:26;;;;;;;10.15;5.60;;;;;;;;;;4994066;28;20339;-70
2023/09/30 04:49:52;;;;;;;14.25;5.22;;;;;;;;;;5007586;28;20144;-70
2023/09/30 04:52:18;;;;;;;10.95;5.22;;;;;;;;;;5012239;28;20050;-69
2023/09/30 04:54:45;;;;;;;9.95;5.18;;;;;;;;;;5012515;28;20076;-69
2023/09/30 04:57:11;;;;;;;17.38;5.60;;;;;;;;;;5013106;28;20050;-72
2023/09/30 04:59:37;;;;;;;8.77;5.50;;;;;;;;;;4997554;28;20057;-69
2023/09/30 05:02:03;;;;;;;14.35;6.18;;;;;;;;;;5012625;28;20057;-69
2023/09/30 05:04:29;;;;;;;16.50;5.90;;;;;;;;;;5009918;28;20104;-71
2023/09/30 05:06:56;;;;;;;10.55;6.05;;;;;;;;;;5009561;28;20076;-69
2023/09/30 05:09:22;;;;;;;13.80;6.22;;;;;;;;;;5011859;28;20061;-70
2023/09/30 05:11:49;;;;;;;10.90;6.30;;;;;;;;;;5014575;28;20050;-69
2023/09/30 05:14:16;;;;;;;16.73;6.72;;;;;;;;;;5010182;28;20414;-68
2023/09/30 05:16:43;;;;;;;12.75;7.03;;;;;;;;;;5012593;28;20061;-68
2023/09/30 05:19:09;;;;;;;16.08;6.88;;;;;;;;;;5010338;28;20061;-69
2023/09/30 05:22:24;;;;;;;13.60;6.72;;;;;;;;;;4999121;28;20050;-71
2023/09/30 05:26:04;;;;;;;10.80;6.28;;;;;;;;;;5003459;28;20399;-69
2023/09/30 05:29:47;;;;;;;15.65;7.60;;;;;;;;;;5009960;28;20638;-70
2023/09/30 05:32:52;;;;;;;9.98;6.07;;;;;;;;;;5004547;28;20083;-70
2023/09/30 05:35:18;;;;;;;13.73;6.22;;;;;;;;;;5006115;28;20414;-70
2023/09/30 05:37:47;;;;;;;13.57;6.60;;;;;;;;;;5009044;28;20050;-69
2023/09/30 05:40:54;;;;;;;14.18;6.38;;;;;;;;;;5006707;28;20054;-71
2023/09/30 05:44:33;;;;;;;14.40;6.28;;;;;;;;;;5007260;28;20081;-73
2023/09/30 05:47:34;;;;;;;13.27;5.97;;;;;;;;;;5002709;28;20153;-74
2023/09/30 05:50:40;;;;;;;11.73;5.75;;;;;;;;;;5009029;28;20049;-75
2023/09/30 05:54:22;;;;;;;12.95;4.85;;;;;;;;;;4991103;28;20061;-74
2023/09/30 05:58:03;;;;;;;15.27;5.30;;;;;;;;;;4990494;28;20073;-73
2023/09/30 06:01:43;;;;;;;11.93;4.72;;;;;;;;;;4989754;28;20045;-73
2023/09/30 06:05:25;;;;;;;7.05;4.40;;;;;;;;;;4989691;28;20411;-74
2023/09/30 06:09:07;;;;;;;8.68;4.25;;;;;;;;;;4992834;28;20058;-74
2023/09/30 06:12:46;;;;;;;11.38;4.47;;;;;;;;;;4992249;28;20043;-75
2023/09/30 06:16:26;;;;;;;13.73;5.38;;;;;;;;;;4995210;28;20060;-73
2023/09/30 06:20:15;;;;;;;11.02;3.90;;;;;;;;;;4989427;28;20141;-75
2023/09/30 06:23:48;;;;;;;8.32;4.13;;;;;;;;;;4985741;28;20533;-77
2023/09/30 06:27:27;;;;;;;7.07;3.60;;;;;;;;;;4991856;28;20057;-76
2023/09/30 06:31:08;;;;;;;7.95;4.35;;;;;;;;;;4992238;28;20050;-77
2023/09/30 06:34:51;;;;;;;9.85;4.65;;;;;;;;;;4989781;28;20068;-76
2023/09/30 06:38:32;;;;;;;16.83;4.97;;;;;;;;;;4988060;28;20120;-75
2023/09/30 06:42:14;;;;;;;8.98;4.28;;;;;;;;;;4986192;28;20069;-74
2023/09/30 06:45:54;;;;;;;12.98;4.10;;;;;;;;;;4988938;28;20073;-77
2023/09/30 06:49:35;;;;;;;5.10;3.60;;;;;;;;;;4984416;28;20145;-75
2023/09/30 06:53:15;;;;;;;7.60;3.78;;;;;;;;;;4984518;28;20045;-75
2023/09/30 06:56:55;;;;;;;12.02;3.95;;;;;;;;;;4990350;28;20430;-77
2023/09/30 07:00:36;;;;;;;7.35;3.70;;;;;;;;;;4986998;28;20104;-72
2023/09/30 07:04:17;;;;;;;12.95;4.53;;;;;;;;;;4982368;28;20416;-74
2023/09/30 07:08:00;;;;;;;8.20;4.55;;;;;;;;;;4985640;28;20140;-73
2023/09/30 07:11:46;;;;;;;12.15;4.90;;;;;;;;;;4992441;28;20504;-74
2023/09/30 07:14:47;;;;;;;13.98;5.43;;;;;;;;;;4988936;28;20049;-79
2023/09/30 07:17:53;;;;;;;10.18;5.20;;;;;;;;;;4996401;28;20054;-70
2023/09/30 07:20:32;;;;;;;23.42;5.38;;;;;;;;;;4998697;28;20062;-80
2023/09/30 07:23:03;;;;;;;11.85;5.43;;;;;;;;;;4984434;28;20511;-81
2023/09/30 07:25:32;;;;;;;12.75;5.30;;;;;;;;;;4998312;28;20049;-79
2023/09/30 07:28:00;;;;;;;12.88;4.95;;;;;;;;;;5001833;28;20057;-79
2023/09/30 07:30:26;;;;;;;11.45;5.00;;;;;;;;;;4998650;28;20046;-79
2023/09/30 07:32:52;;;;;;;13.48;5.10;;;;;;;;;;4999459;28;20072;-78
2023/09/30 07:35:19;;;;;;;12.13;5.30;;;;;;;;;;5003000;28;20056;-81
2023/09/30 07:37:46;;;;;;;10.55;5.20;;;;;;;;;;4985262;28;20172;-78
2023/09/30 07:40:12;;;;;;;10.05;5.57;;;;;;;;;;4983685;28;20061;-80
2023/09/30 07:42:39;;;;;;;15.68;5.72;;;;;;;;;;5002057;28;20045;-80
2023/09/30 07:45:05;;;;;;;11.70;5.30;;;;;;;;;;4985376;28;20056;-79
2023/09/30 07:48:14;;;;;;;17.48;6.35;;;;;;;;;;4998280;28;20060;-77
2023/09/30 07:51:53;;;;;;;13.80;6.20;;;;;;;;;;5000579;28;20042;-78
2023/09/30 07:55:33;;;;;;;12.13;5.97;;;;;;;;;;4993745;28;20260;-76
2023/09/30 07:59:14;;;;;;;14.25;5.97;;;;;;;;;;4995945;28;20341;-78
2023/09/30 08:02:54;;;;;;;14.75;5.68;;;;;;;;;;4997648;28;20153;-79
2023/09/30 08:06:34;;;;;;;8.35;4.25;;;;;;;;;;5001558;28;20113;-79
2023/09/30 08:10:16;;;;;;;7.63;4.55;;;;;;;;;;4996732;28;20192;-78
2023/09/30 08:13:56;;;;;;;12.05;4.35;;;;;;;;;;4993573;28;20057;-78
2023/09/30 08:17:36;;;;;;;8.07;4.20;;;;;;;;;;4992155;28;20406;-78
2023/09/30 08:21:16;;;;;;;11.00;4.15;;;;;;;;;;4994144;28;20046;-80
2023/09/30 08:24:57;;;;;;;9.95;4.10;;;;;;;;;;4991608;28;20058;-76
2023/09/30 08:28:38;;;;;;;13.10;4.10;;;;;;;;;;4994755;28;20129;-80
2023/09/30 08:32:19;;;;;;;11.52;4.20;;;;;;;;;;4993939;28;20095;-78
2023/09/30 08:35:59;;;;;;;12.30;4.22;;;;;;;;;;4994544;28;20080;-77
2023/09/30 08:39:42;;;;;;;15.27;3.92;;;;;;;;;;4995433;28;20524;-77
2023/09/30 08:43:23;;;;;;;11.20;4.32;;;;;;;;;;4993881;28;20058;-77
2023/09/30 08:47:03;;;;;;;9.52;3.90;;;;;;;;;;4992074;28;20125;-78
2023/09/30 08:50:43;;;;;;;12.13;3.55;;;;;;;;;;5000347;28;20068;-78
2023/09/30 08:54:25;;;;;;;8.88;3.97;;;;;;;;;;5004048;28;20046;-77
2023/09/30 08:58:08;;;;;;;14.13;4.13;;;;;;;;;;4996426;28;20060;-76
2023/09/30 09:01:48;;;;;;;9.20;3.60;;;;;;;;;;4996102;28;20064;-79
2023/09/30 09:05:19;;;;;;;10.25;3.22;;;;;;;;;;4999915;28;20052;-78
2023/09/30 09:07:46;;;;;;;7.43;3.50;;;;;;;;;;4992767;28;20050;-79
2023/09/30 09:10:13;;;;;;;16.80;3.45;;;;;;;;;;4997235;28;20051;-76
2023/09/30 09:13:19;;;;;;;11.77;3.55;;;;;;;;;;4992266;28;22185;-76
2023/09/30 09:17:15;;;;;;;5.85;3.00;;;;;;;;;;4997723;28;20406;-74
2023/09/30 09:20:58;;;;;;;7.57;3.30;;;;;;;;;;5001984;28;20127;-79
2023/09/30 09:24:46;;;;;;;8.52;3.58;;;;;;;;;;5002185;28;20065;-79
2023/09/30 09:28:24;;;;;;;12.40;4.28;;;;;;;;;;5008013;28;20137;-81
2023/09/30 09:32:09;;;;;;;13.55;3.63;;;;;;;;;;5010074;28;20049;-79
2023/09/30 09:35:51;;;;;;;13.68;3.80;;;;;;;;;;5007592;28;20049;-77
2023/09/30 09:39:24;;;;;;;8.38;3.72;;;;;;;;;;5003018;28;20053;-80
2023/09/30 09:42:44;;;;;;;;;;;;;;;;;;5005996;28;20113;-80
2023/09/30 09:46:25;;;;;;;8.13;3.65;;;;;;;;;;5009470;28;19921;-80
2023/09/30 09:50:07;;;;;;;7.15;3.28;;;;;;;;;;5008733;28;20056;-79
2023/09/30 09:53:46;;;;;;;12.73;3.50;;;;;;;;;;5003739;28;20081;-80
2023/09/30 09:57:26;;;;;;;14.80;3.70;;;;;;;;;;5007050;28;20068;-79
2023/09/30 10:01:07;;;;;;;7.72;3.42;;;;;;;;;;5000787;28;20054;-78
2023/09/30 10:04:47;;;;;;;8.52;3.17;;;;;;;;;;4999059;28;20050;-77
2023/09/30 10:07:51;;;;;;;7.90;3.47;;;;;;;;;;4997873;28;20058;-79
2023/09/30 10:11:39;;;;;;;8.70;3.38;;;;;;;;;;5002573;28;20047;-78
2023/09/30 10:15:19;;;;;;;6.53;3.33;;;;;;;;;;4996151;28;20145;-79
2023/09/30 10:19:02;;;;;;;5.15;3.05;;;;;;;;;;5004589;28;20121;-77
2023/09/30 10:22:27;;;;;;;10.70;2.90;;;;;;;;;;5001244;28;20411;-77
2023/09/30 10:26:15;;;;;;;9.57;3.47;;;;;;;;;;4997850;28;20064;-76
2023/09/30 10:30:05;;;;;;;7.63;3.40;;;;;;;;;;4992798;28;20054;-78
2023/09/30 10:33:04;;;;;;;12.93;4.03;;;;;;;;;;4995273;28;20063;-77
2023/09/30 10:36:52;;;;;;;13.15;6.50;;;;;;;;;;4994240;28;20050;-79
2023/09/30 10:40:45;;;;;;;14.32;4.68;;;;;;;;;;4996139;28;20050;-77
2023/09/30 10:44:31;;;;;;;10.52;3.83;;;;;;;;;;4995644;28;20053;-77
2023/09/30 10:47:30;;;;;;;10.45;4.20;;;;;;;;;;4996214;28;20532;-77
2023/09/30 10:50:51;;;;;;;13.27;4.55;;;;;;;;;;4995832;28;20057;-78
2023/09/30 10:54:31;;;;;;;13.75;4.47;;;;;;;;;;5000133;28;20046;-74
2023/09/30 10:58:11;;;;;;;10.40;3.63;;;;;;;;;;4994952;28;20611;-71
2023/09/30 11:01:52;;;;;;;10.60;3.95;;;;;;;;;;4994487;28;20049;-77
2023/09/30 11:05:34;;;;;;;11.60;3.17;;;;;;;;;;4991812;28;20108;-78
2023/09/30 11:09:13;;;;;;;4.63;2.65;;;;;;;;;;4994282;28;20151;-72
2023/09/30 11:12:54;;;;;;;5.72;2.45;;;;;;;;;;4990737;28;20053;-71
2023/09/30 11:16:40;;;;;;;7.90;2.35;;;;;;;;;;4991980;28;20046;-78
2023/09/30 11:20:28;;;;;;;3.83;2.10;;;;;;;;;;4994175;28;20049;-77
2023/09/30 11:24:10;;;;;;;8.18;2.78;;;;;;;;;;4991337;28;20058;-77
2023/09/30 11:27:50;;;;;;;5.60;2.75;;;;;;;;;;4995316;28;20501;-74
2023/09/30 11:31:37;;;;;;;8.68;3.17;;;;;;;;;;4992231;28;20077;-76
2023/09/30 11:35:18;;;;;;;10.35;3.75;;;;;;;;;;4991287;28;20049;-75
2023/09/30 11:38:57;;;;;;;6.68;3.00;;;;;;;;;;4995159;28;20064;-76
2023/09/30 11:42:38;;;;;;;7.72;2.70;;;;;;;;;;4987752;28;20065;-78
2023/09/30 11:46:30;;;;;;;8.35;3.90;;;;;;;;;;4992395;28;20060;-77
2023/09/30 11:50:11;;;;;;;10.40;2.42;;;;;;;;;;4995187;28;20057;-69
2023/09/30 11:52:46;;;;;;;7.18;2.60;;;;;;;;;;4990135;28;21082;-73
2023/09/30 11:55:12;;;;;;;5.65;2.40;;;;;;;;;;4988626;28;20049;-73
2023/09/30 11:57:39;;;;;;;3.40;2.17;;;;;;;;;;4992488;28;20057;-75
2023/09/30 12:00:13;;;;;;;6.05;2.50;;;;;;;;;;4991954;28;20054;-72
2023/09/30 12:02:40;;;;;;;5.45;2.65;;;;;;;;;;4989883;28;20054;-72
2023/09/30 12:05:11;;;;;;;8.27;3.92;;;;;;;;;;4993442;28;20394;-75
2023/09/30 12:07:41;;;;;;;5.30;2.53;;;;;;;;;;4989389;28;20057;-71
2023/09/30 12:10:07;;;;;;;6.10;2.60;;;;;;;;;;4990211;28;20578;-75
2023/09/30 12:12:34;;;;;;;5.53;2.65;;;;;;;;;;4991062;28;20072;-72
2023/09/30 12:14:59;;;;;;;9.48;3.50;;;;;;;;;;4991491;28;20844;-74
2023/09/30 12:17:27;;;;;;;6.32;2.50;;;;;;;;;;4990117;28;20058;-74
2023/09/30 12:19:53;;;;;;;6.90;2.42;;;;;;;;;;4995778;28;20050;-70
2023/09/30 12:22:20;;;;;;;7.95;3.05;;;;;;;;;;4992569;28;20041;-74
2023/09/30 12:24:46;;;;;;;17.58;2.50;;;;;;;;;;4992790;28;20049;-74
2023/09/30 12:27:55;;;;;;;5.35;2.78;;;;;;;;;;4991133;28;20054;-72
2023/09/30 12:31:33;;;;;;;10.65;3.10;;;;;;;;;;4989446;28;20057;-72
2023/09/30 12:35:13;;;;;;;8.45;3.97;;;;;;;;;;4989067;28;20475;-72
2023/09/30 12:38:54;;;;;;;8.73;4.15;;;;;;;;;;4994262;28;20062;-72
2023/09/30 12:42:37;;;;;;;10.98;5.18;;;;;;;;;;4989928;28;20053;-74
2023/09/30 12:46:18;;;;;;;9.02;3.38;;;;;;;;;;4992815;28;20435;-73
2023/09/30 12:49:18;;;;;;;10.52;3.80;;;;;;;;;;4984475;28;20050;-77
2023/09/30 12:52:25;;;;;;;6.03;3.40;;;;;;;;;;4990104;28;20437;-74
2023/09/30 12:56:05;;;;;;;9.93;2.95;;;;;;;;;;4991868;28;20053;-72
2023/09/30 12:59:49;;;;;;;6.35;2.35;;;;;;;;;;4995350;28;20046;-72
2023/09/30 13:03:28;;;;;;;8.73;2.70;;;;;;;;;;4992608;28;20823;-75
2023/09/30 13:07:10;;;;;;;4.25;2.70;;;;;;;;;;5002587;28;20270;-74
2023/09/30 13:10:50;;;;;;;9.30;2.63;;;;;;;;;;4988481;28;20047;-71
2023/09/30 13:14:31;;;;;;;7.18;2.22;;;;;;;;;;5009036;28;20129;-72
2023/09/30 13:18:17;;;;;;;6.88;3.03;;;;;;;;;;4997539;28;20700;-76
2023/09/30 13:21:57;;;;;;;8.55;2.67;;;;;;;;;;4987437;28;20046;-69
2023/09/30 13:25:38;;;;;;;5.65;2.10;;;;;;;;;;4988860;28;20061;-63
2023/09/30 13:29:18;;;;;;;6.05;2.40;;;;;;;;;;4983014;28;20046;-67
2023/09/30 13:32:58;;;;;;;6.63;2.15;;;;;;;;;;4990017;28;20065;-73
2023/09/30 13:36:42;;;;;;;6.80;2.30;;;;;;;;;;4989922;28;20065;-76
2023/09/30 13:40:22;;;;;;;5.50;2.65;;;;;;;;;;4990847;28;20081;-72
2023/09/30 13:44:02;;;;;;;3.85;2.25;;;;;;;;;;4988657;28;20054;-69
2023/09/30 13:47:42;;;;;;;6.13;2.40;;;;;;;;;;4992851;28;20081;-69
2023/09/30 13:50:43;;;;;;;5.28;1.92;;;;;;;;;;4995979;28;20045;-77
2023/09/30 13:53:09;;;;;;;4.45;2.17;;;;;;;;;;4995480;28;20058;-74
2023/09/30 13:55:39;;;;;;;6.13;2.35;;;;;;;;;;5000767;28;20058;-75
2023/09/30 13:58:07;;;;;;;4.00;2.60;;;;;;;;;;4990719;28;20509;-73
2023/09/30 14:00:33;;;;;;;7.10;2.40;;;;;;;;;;4975280;28;20272;-72
2023/09/30 14:03:06;;;;;;;5.18;2.50;;;;;;;;;;4986575;28;20080;-73
2023/09/30 14:05:32;;;;;;;6.22;2.53;;;;;;;;;;4971726;28;20098;-75
2023/09/30 14:08:01;;;;;;;3.95;1.85;;;;;;;;;;4993193;28;20085;-70
2023/09/30 14:10:29;;;;;;;5.07;2.00;;;;;;;;;;4986031;28;20506;-71
2023/09/30 14:12:56;;;;;;;4.47;1.90;;;;;;;;;;4991035;28;20053;-70
2023/09/30 14:15:23;;;;;;;5.78;2.30;;;;;;;;;;4989419;28;20513;-73
2023/09/30 14:17:50;;;;;;;3.42;1.90;;;;;;;;;;4974944;28;20058;-73
2023/09/30 14:20:16;;;;;;;9.60;2.70;;;;;;;;;;4985304;28;20430;-77
2023/09/30 14:22:42;;;;;;;4.68;1.92;;;;;;;;;;4993941;28;20414;-75
2023/09/30 14:25:48;;;;;;;4.97;2.00;;;;;;;;;;4989136;28;20506;-75
2023/09/30 14:29:28;;;;;;;10.38;2.95;;;;;;;;;;5002953;28;20095;-68
2023/09/30 14:33:08;;;;;;;4.55;1.80;;;;;;;;;;5001162;28;20414;-70
2023/09/30 14:36:49;;;;;;;5.10;1.90;;;;;;;;;;5004884;28;20050;-72
2023/09/30 14:40:44;;;;;;;3.30;2.13;;;;;;;;;;5003399;28;20045;-71
2023/09/30 14:44:26;;;;;;;5.05;1.80;;;;;;;;;;5004011;28;20065;-71
2023/09/30 14:48:06;;;;;;;4.65;1.73;;;;;;;;;;4999651;28;20050;-73
2023/09/30 14:51:48;;;;;;;6.05;2.08;;;;;;;;;;5000101;28;20050;-70
2023/09/30 14:55:27;;;;;;;6.45;2.00;;;;;;;;;;4999649;28;20403;-68
